Rolf Williams — WDC7079 — position and weather

sailwx.info

Track history (hours):
 
Tides and Currents Weather Stations Pressure Air Temp Water Temp Dewpoint Dewpoint Depression Visibility Wind Speed Wind Dir Waves Ship Positions

Rolf Williams

Owner: Marine Oil Service of New York, Elizabeth, NJ. More information available from US FCC via Universal Licensing System and Coast Guard Vessel Documentation Center.

Last reported at 2018-Feb-22 13:16 UTC. Time now 2018-Feb-23 10:43 UTC.
Position N 36°49' W 076°17'.

; draft 4 m.

Type: Tanker. MMSI: 367065790.

Date/timePositionNaut miles runAvg speedWind from/ knotsBaromVisibWave heightAir tempDewpointWater temp
2018-Feb-22 13:16N 36°49' W 076°17'0 0.0
2018-Feb-22 12:46N 36°49' W 076°17'  
2018-Feb-15 16:29N 36°49' W 076°17'3 6.9
2018-Feb-15 16:01N 36°52' W 076°20'4 1.4
2018-Feb-15 13:01N 36°56' W 076°20'0 1.0
2018-Feb-15 12:56N 36°56' W 076°20'3 6.3
2018-Feb-15 12:28N 36°53' W 076°20'3 7.3
2018-Feb-15 12:00N 36°51' W 076°18'1 0.1
2018-Feb-14 14:18N 36°49' W 076°17'0 0.0
2018-Feb-14 13:57N 36°49' W 076°17'0 0.0
2018-Feb-13 18:45N 36°49' W 076°17'1 5.9
2018-Feb-13 18:30N 36°51' W 076°18'3 2.9
2018-Feb-13 17:33N 36°52' W 076°21'0 0.0
2018-Feb-13 14:29N 36°52' W 076°21'3 6.1
2018-Feb-13 13:59N 36°51' W 076°18'3 6.4
2018-Feb-13 13:31N 36°48' W 076°18'1 2.2
2018-Feb-13 13:00N 36°47' W 076°18'0 0.0
2018-Feb-13 12:30N 36°47' W 076°18'0 0.0
2018-Feb-13 12:00N 36°47' W 076°18'0 0.0
2018-Feb-13 11:30N 36°47' W 076°18'2 4.0
2018-Feb-13 11:00N 36°48' W 076°17'2 0.1
2018-Feb-12 19:41N 36°50' W 076°18'1 6.3
2018-Feb-12 19:30N 36°51' W 076°18'2 0.6
2018-Feb-12 15:55N 36°53' W 076°20'0 0.2
2018-Feb-12 14:02N 36°53' W 076°20'1 9.6
2018-Feb-12 13:53N 36°52' W 076°19'  
Track history (hours):
 
Tides and Currents Weather Stations Pressure Air Temp Water Temp Dewpoint Dewpoint Depression Visibility Wind Speed Wind Dir Waves Ship Positions

Rolf Williams

Owner: Marine Oil Service of New York, Elizabeth, NJ. More information available from US FCC via Universal Licensing System and Coast Guard Vessel Documentation Center.

Last reported at 2018-Feb-22 13:16 UTC. Time now 2018-Feb-23 10:43 UTC.
Position N 36°49' W 076°17'.

; draft 4 m.

Type: Tanker. MMSI: 367065790.

Date/timePositionNaut miles runAvg speedWind from/ knotsBaromVisibWave heightAir tempDewpointWater temp
2018-Feb-22 13:16N 36°49' W 076°17'0 0.0
2018-Feb-22 12:46N 36°49' W 076°17'  
2018-Feb-15 16:29N 36°49' W 076°17'3 6.9
2018-Feb-15 16:01N 36°52' W 076°20'4 1.4
2018-Feb-15 13:01N 36°56' W 076°20'0 1.0
2018-Feb-15 12:56N 36°56' W 076°20'3 6.3
2018-Feb-15 12:28N 36°53' W 076°20'3 7.3
2018-Feb-15 12:00N 36°51' W 076°18'1 0.1
2018-Feb-14 14:18N 36°49' W 076°17'0 0.0
2018-Feb-14 13:57N 36°49' W 076°17'0 0.0
2018-Feb-13 18:45N 36°49' W 076°17'1 5.9
2018-Feb-13 18:30N 36°51' W 076°18'3 2.9
2018-Feb-13 17:33N 36°52' W 076°21'0 0.0
2018-Feb-13 14:29N 36°52' W 076°21'3 6.1
2018-Feb-13 13:59N 36°51' W 076°18'3 6.4
2018-Feb-13 13:31N 36°48' W 076°18'1 2.2
2018-Feb-13 13:00N 36°47' W 076°18'0 0.0
2018-Feb-13 12:30N 36°47' W 076°18'0 0.0
2018-Feb-13 12:00N 36°47' W 076°18'0 0.0
2018-Feb-13 11:30N 36°47' W 076°18'2 4.0
2018-Feb-13 11:00N 36°48' W 076°17'2 0.1
2018-Feb-12 19:41N 36°50' W 076°18'1 6.3
2018-Feb-12 19:30N 36°51' W 076°18'2 0.6
2018-Feb-12 15:55N 36°53' W 076°20'0 0.2
2018-Feb-12 14:02N 36°53' W 076°20'1 9.6
2018-Feb-12 13:53N 36°52' W 076°19'  

Dump ship's entire track history